createdAt,value
2023-05-05T00:02:20.435Z,64.69
2023-05-05T00:05:24.028Z,66.68
2023-05-05T00:08:26.154Z,67.42
2023-05-05T00:11:27.945Z,68.26
2023-05-05T00:14:29.813Z,67.48
2023-05-05T00:17:33.083Z,66.42
2023-05-05T00:20:34.965Z,69.07
2023-05-05T00:23:37.080Z,66.31
2023-05-05T00:26:38.916Z,67.12
2023-05-05T00:29:41.033Z,68.80
2023-05-05T00:32:44.367Z,65.39
2023-05-05T00:35:46.170Z,65.67
2023-05-05T00:38:48.080Z,67.75
2023-05-05T00:41:49.951Z,69.03
2023-05-05T00:44:52.070Z,65.73
2023-05-05T00:47:57.432Z,68.90
2023-05-05T00:50:59.720Z,67.82
2023-05-05T00:54:02.052Z,68.13
2023-05-05T00:57:04.236Z,69.01
2023-05-05T01:00:09.897Z,67.95
2023-05-05T01:03:15.452Z,67.00
2023-05-05T01:06:33.686Z,67.83
2023-05-05T01:09:42.135Z,70.72
2023-05-05T01:12:51.615Z,70.58
2023-05-05T01:16:01.561Z,71.07
2023-05-05T01:19:29.727Z,70.53
2023-05-05T01:22:38.376Z,71.87
2023-05-05T01:26:08.552Z,70.82
2023-05-05T01:29:31.549Z,70.93
2023-05-05T01:32:40.006Z,69.60
2023-05-05T01:35:45.920Z,68.76
2023-05-05T01:38:50.995Z,70.85
2023-05-05T01:41:59.010Z,70.04
2023-05-05T01:45:04.868Z,70.92
2023-05-05T01:48:09.661Z,71.45
2023-05-05T01:51:13.165Z,71.24
2023-05-05T01:54:18.716Z,72.01
2023-05-05T01:57:21.617Z,71.17
2023-05-05T02:00:25.340Z,70.14
2023-05-05T02:03:30.713Z,70.67
2023-05-05T02:06:33.601Z,70.53
2023-05-05T02:09:37.124Z,68.46
2023-05-05T02:12:41.036Z,69.43
2023-05-05T02:15:44.698Z,69.51
2023-05-05T02:18:49.046Z,70.14
2023-05-05T02:21:50.960Z,71.06
2023-05-05T02:24:54.423Z,68.82
2023-05-05T02:28:03.872Z,68.71
2023-05-05T02:31:07.278Z,68.15
2023-05-05T02:34:11.558Z,68.55
2023-05-05T02:37:18.929Z,69.39
2023-05-05T02:40:24.636Z,68.92
2023-05-05T02:43:28.292Z,69.99
2023-05-05T02:46:31.354Z,68.99
2023-05-05T02:49:34.677Z,70.29
2023-05-05T02:52:36.585Z,70.06
2023-05-05T02:55:45.340Z,70.51
2023-05-05T02:58:53.107Z,70.79
2023-05-05T03:02:06.748Z,71.07
2023-05-05T03:05:15.137Z,70.88
2023-05-05T03:08:20.556Z,71.20
2023-05-05T03:11:29.265Z,71.23
2023-05-05T03:14:36.439Z,71.71
2023-05-05T03:17:40.747Z,71.49
2023-05-05T03:20:44.493Z,72.34
2023-05-05T03:23:46.785Z,71.92
2023-05-05T03:26:49.729Z,72.04
2023-05-05T03:29:51.637Z,71.38
2023-05-05T03:32:53.489Z,71.84
2023-05-05T03:35:57.051Z,70.88
2023-05-05T03:38:58.873Z,71.45
2023-05-05T03:42:00.802Z,72.62
2023-05-05T03:45:04.076Z,71.67
2023-05-05T03:48:06.688Z,70.47
2023-05-05T03:51:09.944Z,70.24
2023-05-05T03:54:11.729Z,69.93
2023-05-05T03:57:13.647Z,70.02
2023-05-05T04:00:16.080Z,70.10
2023-05-05T04:03:18.792Z,70.40
2023-05-05T04:06:22.164Z,71.30
2023-05-05T04:09:24.505Z,70.44
2023-05-05T04:12:26.307Z,70.22
2023-05-05T04:15:28.579Z,69.89
2023-05-05T04:18:30.501Z,69.96
2023-05-05T04:21:33.733Z,69.77
2023-05-05T04:24:36.574Z,70.00
2023-05-05T04:27:38.496Z,70.31
2023-05-05T04:30:41.020Z,70.05
2023-05-05T04:33:42.817Z,70.57
2023-05-05T04:36:45.982Z,69.81
2023-05-05T04:39:47.780Z,70.09
2023-05-05T04:42:49.609Z,70.24
2023-05-05T04:45:54.887Z,70.32
2023-05-05T04:48:58.584Z,69.90
2023-05-05T04:52:01.911Z,69.92
2023-05-05T04:55:05.043Z,69.48
2023-05-05T04:58:06.842Z,70.22
2023-05-05T05:01:09.432Z,69.98
2023-05-05T05:04:11.332Z,70.05
2023-05-05T05:07:15.186Z,69.79
2023-05-05T05:10:17.432Z,69.59
2023-05-05T05:13:19.486Z,69.46
2023-05-05T05:16:22.097Z,68.98
2023-05-05T05:19:24.040Z,67.47
2023-05-05T05:22:27.704Z,66.26
2023-05-05T05:25:29.584Z,64.74
2023-05-05T05:28:32.464Z,65.38
2023-05-05T05:31:34.570Z,65.78
2023-05-05T05:34:36.434Z,66.20
2023-05-05T05:37:39.608Z,67.23
2023-05-05T05:40:42.508Z,66.43
2023-05-05T05:43:44.309Z,64.93
2023-05-05T05:46:46.129Z,64.47
2023-05-05T05:49:48.379Z,60.91
2023-05-05T05:52:51.526Z,59.21
2023-05-05T05:55:54.312Z,59.09
2023-05-05T05:58:56.314Z,55.97
2023-05-05T06:01:58.684Z,56.65
2023-05-05T06:05:01.470Z,63.90
2023-05-05T06:08:05.148Z,61.44
2023-05-05T06:11:07.346Z,58.17
2023-05-05T06:14:09.216Z,57.73
2023-05-05T06:17:11.013Z,57.70
2023-05-05T06:20:14.006Z,58.58
2023-05-05T06:23:17.260Z,57.57
2023-05-05T06:26:19.291Z,55.44
2023-05-05T06:29:22.375Z,56.15
2023-05-05T06:32:25.372Z,55.12
2023-05-05T06:35:27.243Z,54.03
2023-05-05T06:38:30.767Z,51.47
2023-05-05T06:41:32.593Z,50.24
2023-05-05T06:44:36.507Z,50.22
2023-05-05T06:47:38.330Z,51.73
2023-05-05T06:50:41.199Z,50.93
2023-05-05T06:53:44.415Z,50.46
2023-05-05T06:56:47.120Z,50.56
2023-05-05T06:59:48.973Z,48.35
2023-05-05T07:02:51.165Z,50.88
2023-05-05T07:05:54.986Z,52.33
2023-05-05T07:08:58.290Z,52.70
2023-05-05T07:12:01.141Z,52.65
2023-05-05T07:15:12.281Z,53.38
2023-05-05T07:18:21.961Z,52.84
2023-05-05T07:21:23.804Z,52.23
2023-05-05T07:24:27.027Z,52.47
2023-05-05T07:27:29.209Z,52.36
2023-05-05T07:30:31.084Z,51.57
2023-05-05T07:33:32.894Z,51.21
2023-05-05T07:36:35.310Z,50.39
2023-05-05T07:39:38.627Z,51.31
2023-05-05T07:42:41.099Z,50.53
2023-05-05T07:45:42.954Z,51.05
2023-05-05T07:48:45.021Z,50.96
2023-05-05T07:51:47.252Z,50.03
2023-05-05T07:54:50.752Z,49.57
2023-05-05T07:57:53.044Z,49.12
2023-05-05T08:00:55.059Z,49.78
2023-05-05T08:03:57.021Z,50.12
2023-05-05T08:06:58.926Z,50.28
2023-05-05T08:10:02.364Z,49.24
2023-05-05T08:13:04.255Z,51.28
2023-05-05T08:16:07.618Z,49.10
2023-05-05T08:19:21.092Z,50.53
2023-05-05T08:22:29.925Z,48.84
2023-05-05T08:25:33.180Z,49.15
2023-05-05T08:28:39.522Z,48.85
2023-05-05T08:31:41.343Z,48.88
2023-05-05T08:34:43.934Z,49.50
2023-05-05T08:37:46.219Z,48.07
2023-05-05T08:40:51.973Z,49.02
2023-05-05T08:43:53.927Z,47.95
2023-05-05T08:46:56.241Z,47.68
2023-05-05T08:49:59.506Z,47.68
2023-05-05T08:53:10.284Z,50.47
2023-05-05T08:56:15.600Z,47.92
2023-05-05T08:59:18.927Z,46.54
2023-05-05T09:02:23.981Z,46.79
2023-05-05T09:05:26.728Z,46.47
2023-05-05T09:08:29.897Z,45.82
2023-05-05T09:11:34.708Z,47.13
2023-05-05T09:17:58.346Z,47.64
2023-05-05T09:21:00.357Z,47.50
2023-05-05T09:24:08.834Z,46.85
2023-05-05T09:27:22.487Z,46.64
2023-05-05T09:30:26.162Z,46.66
2023-05-05T09:33:31.704Z,46.74
2023-05-05T09:36:43.595Z,45.64
2023-05-05T09:39:54.083Z,45.63
2023-05-05T09:43:02.961Z,46.60
2023-05-05T09:46:08.425Z,45.38
2023-05-05T09:49:15.815Z,47.00
2023-05-05T09:52:17.841Z,47.07
2023-05-05T09:55:19.903Z,45.14
2023-05-05T09:58:25.961Z,44.10
2023-05-05T10:01:27.914Z,45.11
2023-05-05T10:04:30.808Z,43.64
2023-05-05T10:07:34.220Z,44.19
2023-05-05T10:10:36.326Z,44.82
2023-05-05T10:13:42.178Z,43.27
2023-05-05T10:16:48.346Z,44.02
2023-05-05T10:19:53.164Z,45.41
2023-05-05T10:22:57.854Z,41.15
2023-05-05T10:26:05.088Z,43.05
2023-05-05T10:29:16.346Z,40.23
2023-05-05T10:32:51.491Z,41.04
2023-05-05T10:35:52.797Z,43.35
2023-05-05T10:38:56.949Z,42.13
2023-05-05T10:42:04.630Z,42.65
2023-05-05T10:45:08.980Z,41.01
2023-05-05T10:48:18.910Z,41.52
2023-05-05T10:51:39.199Z,42.19
2023-05-05T10:54:48.332Z,41.88
2023-05-05T10:57:53.408Z,41.93
2023-05-05T11:00:56.758Z,42.67
2023-05-05T11:04:18.133Z,41.65
2023-05-05T11:07:23.760Z,41.73
2023-05-05T11:10:26.453Z,40.71
2023-05-05T11:13:28.772Z,40.96
2023-05-05T11:16:47.508Z,40.51
2023-05-05T11:19:52.221Z,39.31
2023-05-05T11:23:22.128Z,40.25
2023-05-05T11:26:49.858Z,38.73
2023-05-05T11:30:10.881Z,37.20
2023-05-05T11:33:28.393Z,38.18
2023-05-05T11:36:40.794Z,40.04
2023-05-05T11:39:54.435Z,36.86
2023-05-05T11:43:04.822Z,37.42
2023-05-05T11:46:13.407Z,38.87
2023-05-05T11:49:26.497Z,37.82
2023-05-05T11:52:28.426Z,35.88
2023-05-05T11:55:30.726Z,36.32
2023-05-05T11:58:32.546Z,35.92
2023-05-05T12:01:35.983Z,38.08
2023-05-05T12:04:39.781Z,37.22
2023-05-05T12:07:42.469Z,36.29
2023-05-05T12:10:44.292Z,36.12
2023-05-05T12:13:46.617Z,36.42
2023-05-05T12:16:55.727Z,36.46
2023-05-05T12:19:58.931Z,35.13
2023-05-05T12:23:03.130Z,37.06
2023-05-05T12:26:05.424Z,33.49
2023-05-05T12:29:07.385Z,33.27
2023-05-05T12:32:18.633Z,34.09
2023-05-05T12:35:22.020Z,33.96
2023-05-05T12:38:24.268Z,33.85
2023-05-05T12:41:26.208Z,33.65
2023-05-05T12:44:35.830Z,34.95
2023-05-05T12:47:38.454Z,35.16
2023-05-05T12:50:42.726Z,34.65
2023-05-05T12:53:44.980Z,35.15
2023-05-05T12:56:48.009Z,32.89
2023-05-05T12:59:50.093Z,33.43
2023-05-05T13:02:53.045Z,32.77
2023-05-05T13:05:56.675Z,34.24
2023-05-05T13:08:58.540Z,35.59
2023-05-05T13:12:03.838Z,35.38
2023-05-05T13:15:06.767Z,33.04
2023-05-05T13:18:08.661Z,33.51
2023-05-05T13:21:11.997Z,33.53
2023-05-05T13:24:26.040Z,32.80
2023-05-05T13:27:37.887Z,34.26
2023-05-05T13:30:39.706Z,33.89
2023-05-05T13:33:41.867Z,33.32
2023-05-05T13:36:45.100Z,33.72
2023-05-05T13:39:46.978Z,33.59
2023-05-05T13:42:49.136Z,35.63
2023-05-05T13:45:50.997Z,33.80
2023-05-05T13:48:56.663Z,33.51
2023-05-05T13:52:00.538Z,37.93
2023-05-05T13:55:02.751Z,32.51
2023-05-05T13:58:05.282Z,33.93
2023-05-05T14:01:07.147Z,33.02
2023-05-05T14:04:09.561Z,32.49
2023-05-05T14:07:12.756Z,32.38
2023-05-05T14:10:15.085Z,35.78
2023-05-05T14:13:16.937Z,32.20
2023-05-05T14:16:19.213Z,32.38
2023-05-05T14:19:21.017Z,32.95
2023-05-05T14:22:24.776Z,32.66
2023-05-05T14:25:26.614Z,32.72
2023-05-05T14:28:28.488Z,32.79
2023-05-05T14:31:31.106Z,32.79
2023-05-05T14:34:33.065Z,33.92
2023-05-05T14:37:36.416Z,34.14
2023-05-05T14:40:38.213Z,34.23
2023-05-05T14:43:41.032Z,33.72
2023-05-05T14:46:45.362Z,34.55
2023-05-05T14:49:47.938Z,34.90
2023-05-05T14:52:51.266Z,33.14
2023-05-05T14:55:56.031Z,37.46
2023-05-05T14:58:57.811Z,37.53
2023-05-05T15:01:59.594Z,36.05
2023-05-05T15:05:02.248Z,38.86
2023-05-05T15:08:06.551Z,36.77
2023-05-05T15:11:08.361Z,36.01
2023-05-05T15:14:10.149Z,35.70
2023-05-05T15:17:13.205Z,38.40
2023-05-05T15:20:15.018Z,36.46
2023-05-05T15:23:18.341Z,35.33
2023-05-05T15:26:20.136Z,38.41
2023-05-05T15:29:23.647Z,36.74
2023-05-05T15:32:25.581Z,36.07
2023-05-05T15:35:27.918Z,36.74
2023-05-05T15:38:31.319Z,35.24
2023-05-05T15:41:34.630Z,36.60
2023-05-05T15:44:36.426Z,36.28
2023-05-05T15:47:39.009Z,40.75
2023-05-05T15:50:40.957Z,45.24
2023-05-05T15:53:44.290Z,44.13
2023-05-05T15:56:46.087Z,40.43
2023-05-05T15:59:51.092Z,37.96
2023-05-05T16:02:52.839Z,38.20
2023-05-05T16:05:54.914Z,40.10
2023-05-05T16:08:58.726Z,43.14
2023-05-05T16:12:00.957Z,38.51
2023-05-05T16:15:02.872Z,40.39
2023-05-05T16:18:05.067Z,42.44
2023-05-05T16:21:07.790Z,45.48
2023-05-05T16:24:15.995Z,45.30
2023-05-05T16:27:18.745Z,47.27
2023-05-05T16:30:20.777Z,47.72
2023-05-05T16:33:25.974Z,50.46
2023-05-05T16:36:28.012Z,44.74
2023-05-05T16:39:33.093Z,44.71
2023-05-05T16:42:34.930Z,48.97
2023-05-05T16:45:36.836Z,49.70
2023-05-05T16:48:38.672Z,49.09
2023-05-05T16:51:42.475Z,52.03
2023-05-05T16:54:46.603Z,51.86
2023-05-05T16:57:48.417Z,52.71
2023-05-05T17:00:50.592Z,54.76
2023-05-05T17:03:55.351Z,56.99
2023-05-05T17:06:58.084Z,57.78
2023-05-05T17:10:02.058Z,56.33
2023-05-05T17:13:03.989Z,57.20
2023-05-05T17:16:07.181Z,54.53
2023-05-05T17:19:09.072Z,56.94
2023-05-05T17:22:11.684Z,58.67
2023-05-05T17:25:14.819Z,56.67
2023-05-05T17:28:17.571Z,58.63
2023-05-05T17:31:19.668Z,57.18
2023-05-05T17:34:22.023Z,58.24
2023-05-05T17:37:24.540Z,58.79
2023-05-05T17:40:27.723Z,59.59
2023-05-05T17:43:29.501Z,60.70
2023-05-05T17:46:31.769Z,58.60
2023-05-05T17:49:34.441Z,61.85
2023-05-05T17:52:36.315Z,60.85
2023-05-05T17:55:39.492Z,61.16
2023-05-05T17:58:41.546Z,56.37
2023-05-05T18:01:43.450Z,54.96
2023-05-05T18:04:45.685Z,55.01
2023-05-05T18:07:47.580Z,53.50
2023-05-05T18:10:50.996Z,51.66
2023-05-05T18:13:52.901Z,51.98
2023-05-05T18:16:54.676Z,53.89
2023-05-05T18:19:56.540Z,56.03
2023-05-05T18:22:58.301Z,58.36
2023-05-05T18:26:01.460Z,61.15
2023-05-05T18:29:03.535Z,62.11
2023-05-05T18:32:06.195Z,61.78
2023-05-05T18:35:09.680Z,60.67
2023-05-05T18:38:12.259Z,60.46
2023-05-05T18:41:16.227Z,59.73
2023-05-05T18:44:18.423Z,56.78
2023-05-05T18:47:23.701Z,56.16
2023-05-05T18:50:25.669Z,54.79
2023-05-05T18:53:28.884Z,56.45
2023-05-05T18:56:32.175Z,56.35
2023-05-05T18:59:34.086Z,55.33
2023-05-05T19:02:36.568Z,54.19
2023-05-05T19:05:40.632Z,55.49
2023-05-05T19:08:43.447Z,57.34
2023-05-05T19:11:46.620Z,58.60
2023-05-05T19:14:50.099Z,57.12
2023-05-05T19:17:52.723Z,58.69
2023-05-05T19:20:54.630Z,59.65
2023-05-05T19:23:57.410Z,60.74
2023-05-05T19:27:02.250Z,59.93
2023-05-05T19:30:04.788Z,61.09
2023-05-05T19:33:06.689Z,59.66
2023-05-05T19:36:08.437Z,60.06
2023-05-05T19:39:10.315Z,60.89
2023-05-05T19:42:13.986Z,62.76
2023-05-05T19:45:16.514Z,64.29
2023-05-05T19:48:18.313Z,65.63
2023-05-05T19:51:20.373Z,65.26
2023-05-05T19:54:22.394Z,65.67
2023-05-05T19:57:25.624Z,66.85
2023-05-05T20:00:27.540Z,66.86
2023-05-05T20:03:30.369Z,65.46
2023-05-05T20:06:32.441Z,64.22
2023-05-05T20:09:34.237Z,63.61
2023-05-05T20:12:38.016Z,63.67
2023-05-05T20:15:40.107Z,63.58
2023-05-05T20:18:42.192Z,63.64
2023-05-05T20:21:44.040Z,63.29
2023-05-05T20:24:45.833Z,64.58
2023-05-05T20:27:49.649Z,64.22
2023-05-05T20:30:51.451Z,64.51
2023-05-05T20:33:54.240Z,64.42
2023-05-05T20:36:58.124Z,64.51
2023-05-05T20:40:00.504Z,64.88
2023-05-05T20:43:03.746Z,64.61
2023-05-05T20:46:05.985Z,65.67
2023-05-05T20:49:08.180Z,66.04
2023-05-05T20:52:10.005Z,68.03
2023-05-05T20:55:11.784Z,68.86
2023-05-05T20:58:15.521Z,68.21
2023-05-05T21:01:17.315Z,69.41
2023-05-05T21:04:19.186Z,69.42
2023-05-05T21:07:21.141Z,70.80
2023-05-05T21:10:23.350Z,70.03
2023-05-05T21:13:26.559Z,70.32
2023-05-05T21:16:29.099Z,70.84
2023-05-05T21:19:30.926Z,71.70
2023-05-05T21:22:33.095Z,71.47
2023-05-05T21:25:34.990Z,71.09
2023-05-05T21:28:38.456Z,72.81
2023-05-05T21:31:40.549Z,71.89
2023-05-05T21:34:43.066Z,71.73
2023-05-05T21:37:44.986Z,71.83
2023-05-05T21:40:47.235Z,73.46
2023-05-05T21:43:50.560Z,73.56
2023-05-05T21:46:52.615Z,73.69
2023-05-05T21:49:54.411Z,73.04
2023-05-05T21:52:57.131Z,72.58
2023-05-05T21:55:59.098Z,72.96
2023-05-05T21:59:02.751Z,73.32
2023-05-05T22:02:04.552Z,73.03
2023-05-05T22:05:08.162Z,73.24
2023-05-05T22:08:10.030Z,73.08
2023-05-05T22:11:11.933Z,73.96
2023-05-05T22:14:15.986Z,72.44
2023-05-05T22:17:17.978Z,72.64
2023-05-05T22:20:19.959Z,71.87
2023-05-05T22:23:21.770Z,73.10
2023-05-05T22:26:23.878Z,73.91
2023-05-05T22:29:27.121Z,73.63
2023-05-05T22:32:30.056Z,74.21
2023-05-05T22:35:32.161Z,74.31
2023-05-05T22:38:34.958Z,74.88
2023-05-05T22:41:36.921Z,75.36
2023-05-05T22:44:40.252Z,75.97
2023-05-05T22:47:42.198Z,74.92
2023-05-05T22:50:43.977Z,75.62
2023-05-05T22:53:45.838Z,75.31
2023-05-05T22:56:47.659Z,75.61
2023-05-05T22:59:51.481Z,75.82
2023-05-05T23:02:56.127Z,75.49
2023-05-05T23:05:58.857Z,76.27
2023-05-05T23:09:00.754Z,75.86
2023-05-05T23:12:02.952Z,76.23
2023-05-05T23:15:08.248Z,76.49
2023-05-05T23:18:10.387Z,76.92
2023-05-05T23:21:12.226Z,75.04
2023-05-05T23:24:14.725Z,75.75
2023-05-05T23:27:16.579Z,76.39
2023-05-05T23:30:20.142Z,76.20
2023-05-05T23:33:22.793Z,75.82
2023-05-05T23:36:24.629Z,75.82
2023-05-05T23:39:26.781Z,76.54
2023-05-05T23:42:28.647Z,76.88
2023-05-05T23:45:31.854Z,75.84
2023-05-05T23:48:33.731Z,75.13
2023-05-05T23:51:35.590Z,73.97
2023-05-05T23:54:37.701Z,73.95
2023-05-05T23:57:39.532Z,74.23
